Time;durP1;ratioP1;P1;durP2;ratioP2;P2;SDS_P1;SDS_P2;PMS_P1;PMS_P2;Temp;Humidity;BMP_temperature;BMP_pressure;BME280_temperature;BME280_humidity;BME280_pressure;Samples;Min_cycle;Max_cycle;Signal;HPM_P1;HPM_P2
2022/10/06 00:04:00;;;;;;;;;;;20.10;48.60;;;;;;8362985;28;20019;-43
2022/10/06 00:08:01;;;;;;;;;;;20.10;48.60;;;;;;8362985;28;19959;-43
2022/10/06 00:12:02;;;;;;;;;;;20.10;48.70;;;;;;8362727;28;19913;-43
2022/10/06 00:16:08;;;;;;;;;;;20.10;48.60;;;;;;8362828;28;20351;-43
2022/10/06 00:20:09;;;;;;;;;;;20.10;48.70;;;;;;8367608;28;19924;-43
2022/10/06 00:24:09;;;;;;;;;;;20.10;48.70;;;;;;8368779;28;19924;-43
2022/10/06 00:28:10;;;;;;;;;;;20.10;48.60;;;;;;8369219;28;19983;-43
2022/10/06 00:32:10;;;;;;;;;;;20.10;48.70;;;;;;8369305;28;19939;-43
2022/10/06 00:36:10;;;;;;;;;;;20.00;48.60;;;;;;8368349;28;20337;-43
2022/10/06 00:40:11;;;;;;;;;;;20.10;48.60;;;;;;8368857;28;19931;-43
2022/10/06 00:44:11;;;;;;;;;;;20.00;48.60;;;;;;8368642;28;19929;-43
2022/10/06 00:48:17;;;;;;;;;;;20.00;48.60;;;;;;8367696;28;19986;-43
2022/10/06 00:52:20;;;;;;;;;;;20.00;48.60;;;;;;8368933;28;19913;-43
2022/10/06 00:56:20;;;;;;;;;;;20.00;48.60;;;;;;8368278;28;19916;-43
2022/10/06 01:00:21;;;;;;;;;;;20.00;48.60;;;;;;8367784;28;19970;-43
2022/10/06 01:04:22;;;;;;;;;;;20.00;48.60;;;;;;8368219;28;20027;-43
2022/10/06 01:08:23;;;;;;;;;;;20.00;48.60;;;;;;8366661;28;20003;-43
2022/10/06 01:12:26;;;;;;;;;;;20.00;48.60;;;;;;8367611;28;20373;-43
2022/10/06 01:16:26;;;;;;;;;;;19.90;49.20;;;;;;8367764;28;19975;-43
2022/10/06 01:20:28;;;;;;;;;;;19.90;48.60;;;;;;8367594;28;19917;-43
2022/10/06 01:24:29;;;;;;;;;;;20.00;48.60;;;;;;8367031;28;19925;-43
2022/10/06 01:28:29;;;;;;;;;;;19.90;48.60;;;;;;8367352;28;19924;-43
2022/10/06 01:32:32;;;;;;;;;;;19.90;48.60;;;;;;8366941;28;19913;-43
2022/10/06 01:36:32;;;;;;;;;;;19.90;48.70;;;;;;8366561;28;19928;-43
2022/10/06 01:40:33;;;;;;;;;;;19.90;48.60;;;;;;8367043;28;19921;-43
2022/10/06 01:44:33;;;;;;;;;;;19.90;48.60;;;;;;8366730;28;20012;-43
2022/10/06 01:48:34;;;;;;;;;;;19.90;48.60;;;;;;8366311;28;19920;-43
2022/10/06 01:52:35;;;;;;;;;;;19.90;48.60;;;;;;8366840;28;19913;-43
2022/10/06 01:56:35;;;;;;;;;;;19.90;48.60;;;;;;8366415;28;20340;-43
2022/10/06 02:00:36;;;;;;;;;;;19.90;48.60;;;;;;8366049;28;19925;-43
2022/10/06 02:04:36;;;;;;;;;;;19.80;48.60;;;;;;8366260;28;20015;-43
2022/10/06 02:08:37;;;;;;;;;;;19.90;48.70;;;;;;8365673;28;19961;-43
2022/10/06 02:12:38;;;;;;;;;;;19.90;48.60;;;;;;8366044;28;19939;-43
2022/10/06 02:16:38;;;;;;;;;;;19.90;48.60;;;;;;8366055;28;19917;-43
2022/10/06 02:20:39;;;;;;;;;;;19.80;48.60;;;;;;8365163;28;19962;-43
2022/10/06 02:24:39;;;;;;;;;;;19.80;48.60;;;;;;8365805;28;19917;-43
2022/10/06 02:28:40;;;;;;;;;;;19.80;48.60;;;;;;8365761;28;19920;-43
2022/10/06 02:32:41;;;;;;;;;;;19.80;48.60;;;;;;8364855;28;19921;-43
2022/10/06 02:36:42;;;;;;;;;;;19.80;48.60;;;;;;8365574;28;19921;-43
2022/10/06 02:40:42;;;;;;;;;;;19.80;48.60;;;;;;8364471;28;19928;-43
2022/10/06 02:44:43;;;;;;;;;;;19.70;48.60;;;;;;8363865;28;19974;-43
2022/10/06 02:48:43;;;;;;;;;;;19.80;48.60;;;;;;8365129;28;19974;-43
2022/10/06 02:52:44;;;;;;;;;;;19.80;48.60;;;;;;8364677;28;19971;-43
2022/10/06 02:56:45;;;;;;;;;;;19.70;48.60;;;;;;8364111;28;19921;-43
2022/10/06 03:00:45;;;;;;;;;;;19.80;48.60;;;;;;8364266;28;19924;-43
2022/10/06 03:04:46;;;;;;;;;;;19.80;48.60;;;;;;8364715;28;19917;-43
2022/10/06 03:08:50;;;;;;;;;;;19.70;48.60;;;;;;8364031;28;19991;-43
2022/10/06 03:12:51;;;;;;;;;;;19.70;48.60;;;;;;8363907;28;19917;-43
2022/10/06 03:16:51;;;;;;;;;;;19.70;48.60;;;;;;8363938;28;20019;-44
2022/10/06 03:20:52;;;;;;;;;;;19.70;48.50;;;;;;8363387;28;19920;-43
2022/10/06 03:24:53;;;;;;;;;;;19.70;48.60;;;;;;8364012;28;19924;-43
2022/10/06 03:28:54;;;;;;;;;;;19.70;48.60;;;;;;8364100;28;19944;-43
2022/10/06 03:32:54;;;;;;;;;;;19.70;48.60;;;;;;8363181;28;19917;-43
2022/10/06 03:36:54;;;;;;;;;;;19.70;48.60;;;;;;8363471;28;19923;-43
2022/10/06 03:41:05;;;;;;;;;;;19.70;48.60;;;;;;8363280;28;19929;-43
2022/10/06 03:45:05;;;;;;;;;;;19.70;48.50;;;;;;8362919;28;19916;-43
2022/10/06 03:49:06;;;;;;;;;;;19.70;48.60;;;;;;8363453;28;20320;-43
2022/10/06 03:53:06;;;;;;;;;;;19.70;48.60;;;;;;8362905;28;20323;-43
2022/10/06 03:57:07;;;;;;;;;;;19.70;48.60;;;;;;8362756;28;19916;-43
2022/10/06 04:01:15;;;;;;;;;;;19.60;48.50;;;;;;8362912;28;19925;-43
2022/10/06 04:05:16;;;;;;;;;;;19.70;48.60;;;;;;8357479;28;20336;-44
2022/10/06 04:09:16;;;;;;;;;;;19.70;48.60;;;;;;8362822;28;19960;-43
2022/10/06 04:13:20;;;;;;;;;;;19.70;48.50;;;;;;8362778;28;19917;-43
2022/10/06 04:17:21;;;;;;;;;;;19.70;48.60;;;;;;8363088;28;19917;-43
2022/10/06 04:21:22;;;;;;;;;;;19.70;48.60;;;;;;8362196;28;20404;-43
2022/10/06 04:25:22;;;;;;;;;;;19.60;48.50;;;;;;8362695;28;19928;-43
2022/10/06 04:29:23;;;;;;;;;;;19.70;48.50;;;;;;8362880;28;20281;-43
2022/10/06 04:33:23;;;;;;;;;;;19.60;48.50;;;;;;8362278;28;19924;-43
2022/10/06 04:37:24;;;;;;;;;;;19.70;48.50;;;;;;8362592;28;19959;-44
2022/10/06 04:41:25;;;;;;;;;;;19.70;48.50;;;;;;8362248;28;19927;-43
2022/10/06 04:45:26;;;;;;;;;;;19.70;48.50;;;;;;8361998;28;19917;-43
2022/10/06 04:49:26;;;;;;;;;;;19.60;48.50;;;;;;8363067;28;20354;-43
2022/10/06 04:53:27;;;;;;;;;;;19.60;48.50;;;;;;8362359;28;19916;-43
2022/10/06 04:57:28;;;;;;;;;;;19.60;48.40;;;;;;8361829;28;19916;-43
2022/10/06 05:01:30;;;;;;;;;;;19.60;48.50;;;;;;8362036;28;19979;-43
2022/10/06 05:05:30;;;;;;;;;;;19.60;48.50;;;;;;8364398;28;19917;-43
2022/10/06 05:09:31;;;;;;;;;;;19.60;48.50;;;;;;8368540;28;19950;-43
2022/10/06 05:13:31;;;;;;;;;;;19.60;48.50;;;;;;8367827;28;19924;-43
2022/10/06 05:17:32;;;;;;;;;;;19.60;48.40;;;;;;8367742;28;19921;-43
2022/10/06 05:21:32;;;;;;;;;;;19.60;48.50;;;;;;8367436;28;19924;-43
2022/10/06 05:25:33;;;;;;;;;;;19.60;48.50;;;;;;8367795;28;20273;-43
2022/10/06 05:29:33;;;;;;;;;;;19.60;48.50;;;;;;8367740;28;19920;-43
2022/10/06 05:33:34;;;;;;;;;;;19.60;48.40;;;;;;8366842;28;19917;-43
2022/10/06 05:37:35;;;;;;;;;;;19.50;48.40;;;;;;8366983;28;19917;-43
2022/10/06 05:41:36;;;;;;;;;;;19.50;48.40;;;;;;8366634;28;19925;-44
2022/10/06 05:45:37;;;;;;;;;;;19.60;48.50;;;;;;8366829;28;20428;-43
2022/10/06 05:49:37;;;;;;;;;;;19.60;48.50;;;;;;8367222;28;19939;-43
2022/10/06 05:53:38;;;;;;;;;;;19.50;48.40;;;;;;8366289;28;19923;-43
2022/10/06 05:57:38;;;;;;;;;;;19.50;48.40;;;;;;8366665;28;20035;-43
2022/10/06 06:01:40;;;;;;;;;;;19.50;48.40;;;;;;8366155;28;19989;-43
2022/10/06 06:05:41;;;;;;;;;;;19.50;48.40;;;;;;8366258;28;19917;-44
2022/10/06 06:09:41;;;;;;;;;;;19.60;48.30;;;;;;8366541;28;19917;-44
2022/10/06 06:13:42;;;;;;;;;;;19.60;48.30;;;;;;8365869;28;20386;-43
2022/10/06 06:17:42;;;;;;;;;;;19.70;48.20;;;;;;8365259;28;19974;-42
2022/10/06 06:21:42;;;;;;;;;;;19.60;48.10;;;;;;8365973;28;20285;-42
2022/10/06 06:25:43;;;;;;;;;;;19.60;48.00;;;;;;8365477;28;20004;-43
2022/10/06 06:29:44;;;;;;;;;;;19.70;48.10;;;;;;8365263;28;19913;-42
2022/10/06 06:33:46;;;;;;;;;;;19.60;48.20;;;;;;8365231;28;19927;-42
2022/10/06 06:37:47;;;;;;;;;;;19.60;48.20;;;;;;8365218;28;19940;-43
2022/10/06 06:41:48;;;;;;;;;;;19.60;48.30;;;;;;8364608;28;19932;-43
2022/10/06 06:45:48;;;;;;;;;;;19.60;48.30;;;;;;8365059;28;19924;-43
2022/10/06 06:49:49;;;;;;;;;;;19.60;48.30;;;;;;8364954;28;20378;-43
2022/10/06 06:53:50;;;;;;;;;;;19.60;48.30;;;;;;8364301;28;19917;-43
2022/10/06 06:57:51;;;;;;;;;;;19.60;48.30;;;;;;8364771;28;20281;-42
2022/10/06 07:01:51;;;;;;;;;;;19.50;48.30;;;;;;8364389;28;19931;-43
2022/10/06 07:05:52;;;;;;;;;;;19.60;48.40;;;;;;8363748;28;20004;-42
2022/10/06 07:09:52;;;;;;;;;;;19.50;48.30;;;;;;8363297;28;19967;-43
2022/10/06 07:13:53;;;;;;;;;;;19.50;48.30;;;;;;8364280;28;19923;-42
2022/10/06 07:26:33;;;;;;;;;;;19.60;48.40;;;;;;8363805;28;19958;-43
2022/10/06 07:30:34;;;;;;;;;;;19.60;48.40;;;;;;8363095;28;20366;-43
2022/10/06 07:34:36;;;;;;;;;;;19.50;48.30;;;;;;8363749;28;19923;-43
2022/10/06 07:38:38;;;;;;;;;;;19.50;48.30;;;;;;8363225;28;19917;-44
2022/10/06 07:42:50;;;;;;;;;;;19.50;48.40;;;;;;8363162;28;19931;-43
2022/10/06 07:46:51;;;;;;;;;;;19.60;48.40;;;;;;8363388;28;19952;-43
2022/10/06 07:50:51;;;;;;;;;;;19.60;48.30;;;;;;8363084;28;19924;-43
2022/10/06 07:54:52;;;;;;;;;;;19.60;48.30;;;;;;8363247;28;20293;-43
2022/10/06 07:58:52;;;;;;;;;;;19.60;48.30;;;;;;8363332;28;19920;-43
2022/10/06 08:02:55;;;;;;;;;;;19.60;48.30;;;;;;8362546;28;20328;-43
2022/10/06 08:06:57;;;;;;;;;;;19.60;48.40;;;;;;8362891;28;19955;-43
2022/10/06 08:10:58;;;;;;;;;;;19.60;48.40;;;;;;8363285;28;19963;-42
2022/10/06 08:15:10;;;;;;;;;;;19.60;48.40;;;;;;8362582;28;19917;-42
2022/10/06 08:19:10;;;;;;;;;;;19.60;48.40;;;;;;8363166;28;20369;-42
2022/10/06 08:23:11;;;;;;;;;;;19.60;48.40;;;;;;8362891;28;19924;-43
2022/10/06 08:27:11;;;;;;;;;;;19.60;48.40;;;;;;8362338;28;19917;-43
2022/10/06 08:31:14;;;;;;;;;;;19.60;48.40;;;;;;8362640;28;19955;-42
2022/10/06 08:35:15;;;;;;;;;;;19.60;48.40;;;;;;8363045;28;20799;-42
2022/10/06 08:39:16;;;;;;;;;;;19.60;48.40;;;;;;8362143;28;19963;-42
2022/10/06 08:43:19;;;;;;;;;;;19.70;48.40;;;;;;8368435;28;19925;-42
2022/10/06 08:47:21;;;;;;;;;;;19.70;48.40;;;;;;8368886;28;19935;-42
2022/10/06 08:51:31;;;;;;;;;;;19.60;48.30;;;;;;8368006;28;19916;-43
2022/10/06 08:55:34;;;;;;;;;;;19.70;48.40;;;;;;8368602;28;19923;-42
2022/10/06 08:59:35;;;;;;;;;;;19.70;48.40;;;;;;8368214;28;19978;-42
2022/10/06 09:03:37;;;;;;;;;;;19.70;48.40;;;;;;8367441;28;20004;-42
2022/10/06 09:07:44;;;;;;;;;;;19.70;48.30;;;;;;8367854;28;20008;-43
2022/10/06 09:11:49;;;;;;;;;;;19.70;48.30;;;;;;8367250;28;19927;-43
2022/10/06 09:15:55;;;;;;;;;;;19.70;48.40;;;;;;8367925;28;19947;-43
2022/10/06 09:19:58;;;;;;;;;;;19.70;48.40;;;;;;8367522;28;20004;-42
2022/10/06 09:24:03;;;;;;;;;;;19.70;48.40;;;;;;8367020;28;20369;-43
2022/10/06 09:28:09;;;;;;;;;;;19.70;48.40;;;;;;8367246;28;19920;-42
2022/10/06 09:32:10;;;;;;;;;;;19.70;48.40;;;;;;8367376;28;20007;-43
2022/10/06 09:36:11;;;;;;;;;;;19.70;48.40;;;;;;8366760;28;19921;-42
2022/10/06 09:40:37;;;;;;;;;;;19.80;48.40;;;;;;8367095;28;20336;-43
2022/10/06 09:44:50;;;;;;;;;;;19.80;48.40;;;;;;8359313;28;19932;-42
2022/10/06 09:49:13;;;;;;;;;;;19.80;48.40;;;;;;8366970;28;19917;-42
2022/10/06 09:53:15;;;;;;;;;;;19.80;48.40;;;;;;8368656;28;19929;-43
2022/10/06 09:57:18;;;;;;;;;;;19.80;48.40;;;;;;8366009;28;20345;-42
2022/10/06 10:01:21;;;;;;;;;;;19.80;48.50;;;;;;8366445;28;19917;-43
2022/10/06 10:05:23;;;;;;;;;;;19.80;48.50;;;;;;8366360;28;19916;-43
2022/10/06 10:09:28;;;;;;;;;;;19.80;48.50;;;;;;8364132;28;19917;-43
2022/10/06 10:13:40;;;;;;;;;;;19.80;48.50;;;;;;8366088;28;20377;-43
2022/10/06 10:17:46;;;;;;;;;;;19.80;48.50;;;;;;8363903;28;19948;-45
2022/10/06 10:21:47;;;;;;;;;;;19.80;48.60;;;;;;8365643;28;19924;-44
2022/10/06 10:25:50;;;;;;;;;;;19.80;48.70;;;;;;8365470;28;20428;-44
2022/10/06 10:29:50;;;;;;;;;;;19.90;48.80;;;;;;8365078;28;20369;-43
2022/10/06 10:34:09;;;;;;;;;;;19.90;48.90;;;;;;8365194;28;19959;-44
2022/10/06 10:38:17;;;;;;;;;;;19.90;49.00;;;;;;8365012;28;19923;-42
2022/10/06 10:42:21;;;;;;;;;;;19.90;49.00;;;;;;8364384;28;19925;-44
2022/10/06 10:46:29;;;;;;;;;;;20.00;49.20;;;;;;8365271;28;20274;-44
2022/10/06 10:50:51;;;;;;;;;;;20.00;48.80;;;;;;8364504;28;19917;-44
2022/10/06 10:55:03;;;;;;;;;;;20.00;48.70;;;;;;8364355;28;19917;-45
2022/10/06 10:59:14;;;;;;;;;;;20.00;48.60;;;;;;8364696;28;20388;-45
2022/10/06 11:03:14;;;;;;;;;;;20.00;48.60;;;;;;8363118;28;20417;-44
2022/10/06 11:07:34;;;;;;;;;;;20.10;48.60;;;;;;8364687;28;19947;-44
2022/10/06 11:11:40;;;;;;;;;;;20.10;48.60;;;;;;8364292;28;19925;-43
2022/10/06 11:15:59;;;;;;;;;;;20.10;48.50;;;;;;8364046;28;19962;-44
2022/10/06 11:20:09;;;;;;;;;;;20.10;48.50;;;;;;8363968;28;19916;-45
2022/10/06 11:24:17;;;;;;;;;;;20.10;48.50;;;;;;8363300;28;19970;-44
2022/10/06 11:28:38;;;;;;;;;;;20.10;48.50;;;;;;8363964;28;19948;-44
2022/10/06 11:32:44;;;;;;;;;;;20.10;48.50;;;;;;8363306;28;19925;-45
2022/10/06 11:37:02;;;;;;;;;;;20.10;48.40;;;;;;8363842;28;19923;-44
2022/10/06 11:41:30;;;;;;;;;;;20.20;48.40;;;;;;8363430;28;19931;-44
2022/10/06 11:45:39;;;;;;;;;;;20.20;48.40;;;;;;8359456;28;19928;-45
2022/10/06 11:49:47;;;;;;;;;;;20.20;48.50;;;;;;8363379;28;19916;-44
2022/10/06 11:53:47;;;;;;;;;;;20.20;48.40;;;;;;8362805;28;19917;-44
2022/10/06 11:58:07;;;;;;;;;;;20.20;48.40;;;;;;8363474;28;19913;-43
2022/10/06 12:02:28;;;;;;;;;;;20.20;48.40;;;;;;8363325;28;20370;-44
2022/10/06 12:06:40;;;;;;;;;;;20.30;48.40;;;;;;8362370;28;19920;-44
2022/10/06 12:10:48;;;;;;;;;;;20.20;48.30;;;;;;8363039;28;20011;-44
2022/10/06 12:14:53;;;;;;;;;;;20.30;48.40;;;;;;8365096;28;19917;-43
2022/10/06 12:18:59;;;;;;;;;;;20.30;48.40;;;;;;8369761;28;20366;-44
2022/10/06 12:23:12;;;;;;;;;;;20.30;48.40;;;;;;8369356;28;19970;-44
2022/10/06 12:27:31;;;;;;;;;;;20.30;48.30;;;;;;8369364;28;20333;-46
2022/10/06 12:31:45;;;;;;;;;;;20.30;48.30;;;;;;8369337;28;20339;-44
2022/10/06 12:35:46;;;;;;;;;;;20.30;48.30;;;;;;8368595;28;19921;-48
2022/10/06 12:39:46;;;;;;;;;;;20.40;48.30;;;;;;8368834;28;19952;-44
2022/10/06 12:43:52;;;;;;;;;;;20.30;48.30;;;;;;8368702;28;19924;-44
2022/10/06 12:47:54;;;;;;;;;;;20.40;48.30;;;;;;8368356;28;20006;-43
2022/10/06 12:51:54;;;;;;;;;;;20.40;48.30;;;;;;8368639;28;19913;-44
2022/10/06 12:55:58;;;;;;;;;;;20.40;48.30;;;;;;8368143;28;19944;-44
2022/10/06 12:59:59;;;;;;;;;;;20.40;48.20;;;;;;8364241;28;19921;-43
2022/10/06 13:03:59;;;;;;;;;;;20.40;48.20;;;;;;8353470;28;20393;-45
2022/10/06 13:08:02;;;;;;;;;;;20.40;48.20;;;;;;8352487;28;20313;-43
2022/10/06 13:12:23;;;;;;;;;;;20.40;48.30;;;;;;8354213;28;19925;-44
2022/10/06 13:16:25;;;;;;;;;;;20.40;48.20;;;;;;8351048;28;19918;-44
2022/10/06 13:20:35;;;;;;;;;;;20.50;48.30;;;;;;8347772;28;20346;-45
2022/10/06 13:24:36;;;;;;;;;;;20.50;48.20;;;;;;8357449;28;19978;-44
2022/10/06 13:28:43;;;;;;;;;;;20.50;48.20;;;;;;8349086;28;19956;-45
2022/10/06 13:32:43;;;;;;;;;;;20.50;48.20;;;;;;8344189;28;19949;-46
2022/10/06 13:36:45;;;;;;;;;;;20.50;48.70;;;;;;8361879;28;19916;-45
2022/10/06 13:41:06;;;;;;;;;;;20.50;48.20;;;;;;8365425;28;20571;-44
2022/10/06 13:45:13;;;;;;;;;;;20.50;48.20;;;;;;8359256;28;19935;-49
2022/10/06 13:49:13;;;;;;;;;;;20.60;48.20;;;;;;8355608;28;19921;-45
2022/10/06 13:53:29;;;;;;;;;;;20.50;48.10;;;;;;8334161;28;20293;-45
2022/10/06 13:57:37;;;;;;;;;;;20.50;48.20;;;;;;8344933;28;19917;-45
2022/10/06 14:01:38;;;;;;;;;;;20.50;48.20;;;;;;8348554;28;19929;-46
2022/10/06 14:05:39;;;;;;;;;;;20.60;48.20;;;;;;8345707;28;20274;-45
2022/10/06 14:09:40;;;;;;;;;;;20.60;48.30;;;;;;8341867;28;19925;-44
2022/10/06 14:13:48;;;;;;;;;;;20.50;48.20;;;;;;8351066;28;19924;-44
2022/10/06 14:17:55;;;;;;;;;;;20.60;48.20;;;;;;8344727;28;19928;-43
2022/10/06 14:21:56;;;;;;;;;;;20.60;48.20;;;;;;8351080;28;20285;-46
2022/10/06 14:25:56;;;;;;;;;;;20.60;48.20;;;;;;8344400;28;19923;-45
2022/10/06 14:29:57;;;;;;;;;;;20.60;48.30;;;;;;8348239;28;19917;-44
2022/10/06 14:33:57;;;;;;;;;;;20.60;48.30;;;;;;8352793;28;19920;-42
2022/10/06 14:37:58;;;;;;;;;;;20.60;48.40;;;;;;8348567;28;19917;-44
2022/10/06 14:41:58;;;;;;;;;;;20.60;48.30;;;;;;8346020;28;20022;-44
2022/10/06 14:46:00;;;;;;;;;;;20.60;48.30;;;;;;8352700;28;19979;-44
2022/10/06 14:50:00;;;;;;;;;;;20.60;48.40;;;;;;8345847;28;19917;-45
2022/10/06 14:54:02;;;;;;;;;;;20.60;48.40;;;;;;8347790;28;19916;-46
2022/10/06 14:58:03;;;;;;;;;;;20.60;48.40;;;;;;8345453;28;19931;-46
2022/10/06 15:02:03;;;;;;;;;;;20.60;48.50;;;;;;8345443;28;19929;-47
2022/10/06 15:10:25;;;;;;;;;;;20.60;48.40;;;;;;8361991;28;19923;-44
2022/10/06 15:14:28;;;;;;;;;;;20.60;48.40;;;;;;8345923;28;19917;-44
2022/10/06 15:18:28;;;;;;;;;;;20.60;48.90;;;;;;8360598;28;19913;-47
2022/10/06 15:22:30;;;;;;;;;;;20.60;48.50;;;;;;8359192;28;19925;-45
2022/10/06 15:30:49;;;;;;;;;;;20.60;48.50;;;;;;8363331;28;20278;-47
2022/10/06 15:34:51;;;;;;;;;;;20.60;48.50;;;;;;8363388;28;19913;-48
2022/10/06 15:38:52;;;;;;;;;;;20.60;48.50;;;;;;8363199;28;19921;-43
2022/10/06 15:42:52;;;;;;;;;;;20.60;48.50;;;;;;8363323;28;19925;-43
2022/10/06 15:46:53;;;;;;;;;;;20.60;48.50;;;;;;8363199;28;19953;-44
2022/10/06 15:50:54;;;;;;;;;;;20.60;48.60;;;;;;8362272;28;19917;-44
2022/10/06 15:54:54;;;;;;;;;;;20.60;48.60;;;;;;8363113;28;19920;-43
2022/10/06 15:58:55;;;;;;;;;;;20.60;48.60;;;;;;8363287;28;20023;-44
2022/10/06 16:02:55;;;;;;;;;;;20.60;48.50;;;;;;8346790;28;20020;-44
2022/10/06 16:06:55;;;;;;;;;;;20.60;48.50;;;;;;8352727;28;20381;-43
2022/10/06 16:10:57;;;;;;;;;;;20.60;48.40;;;;;;8362988;28;19917;-46
2022/10/06 16:14:58;;;;;;;;;;;20.60;48.60;;;;;;8362502;28;19916;-46
2022/10/06 16:18:58;;;;;;;;;;;20.60;48.50;;;;;;8362922;28;19991;-47
2022/10/06 16:22:59;;;;;;;;;;;20.60;48.50;;;;;;8362531;28;19925;-44
2022/10/06 16:26:59;;;;;;;;;;;20.60;49.10;;;;;;8362119;28;20004;-46
2022/10/06 16:31:00;;;;;;;;;;;20.60;48.50;;;;;;8362372;28;19923;-45
2022/10/06 16:35:00;;;;;;;;;;;20.60;48.60;;;;;;8362615;28;19913;-44
2022/10/06 16:39:01;;;;;;;;;;;20.60;48.60;;;;;;8362152;28;19924;-44
2022/10/06 16:43:02;;;;;;;;;;;20.60;48.60;;;;;;8362307;28;19979;-43
2022/10/06 16:47:02;;;;;;;;;;;20.60;48.70;;;;;;8362055;28;20294;-45
2022/10/06 16:51:14;;;;;;;;;;;20.60;48.70;;;;;;8361502;28;20215;-44
2022/10/06 16:55:15;;;;;;;;;;;20.60;48.70;;;;;;8361921;28;19917;-45
2022/10/06 16:59:17;;;;;;;;;;;20.60;48.80;;;;;;8362202;28;19916;-44
2022/10/06 17:03:17;;;;;;;;;;;20.60;48.70;;;;;;8365839;28;19986;-46
2022/10/06 17:07:18;;;;;;;;;;;20.60;48.80;;;;;;8367864;28;19917;-45
2022/10/06 17:11:20;;;;;;;;;;;20.60;48.80;;;;;;8368033;28;19920;-43
2022/10/06 17:15:20;;;;;;;;;;;20.50;48.70;;;;;;8367429;28;20297;-44
2022/10/06 17:19:22;;;;;;;;;;;20.60;48.80;;;;;;8368103;28;19913;-45
2022/10/06 17:23:23;;;;;;;;;;;20.60;48.80;;;;;;8367580;28;20301;-44
2022/10/06 17:27:27;;;;;;;;;;;20.50;48.80;;;;;;8367044;28;19917;-45
2022/10/06 17:31:31;;;;;;;;;;;20.60;48.80;;;;;;8367314;28;19913;-45
2022/10/06 17:35:35;;;;;;;;;;;20.60;48.80;;;;;;8367091;28;19945;-45
2022/10/06 17:39:35;;;;;;;;;;;20.60;48.80;;;;;;8366877;28;19913;-45
2022/10/06 17:43:37;;;;;;;;;;;20.60;48.70;;;;;;8366651;28;19925;-45
2022/10/06 17:47:37;;;;;;;;;;;20.60;48.70;;;;;;8366311;28;19962;-43
2022/10/06 17:51:39;;;;;;;;;;;20.60;48.70;;;;;;8366334;28;20004;-43
2022/10/06 17:55:40;;;;;;;;;;;20.60;48.70;;;;;;8366502;28;19970;-43
2022/10/06 17:59:40;;;;;;;;;;;20.60;48.70;;;;;;8366219;28;19912;-44
2022/10/06 18:03:41;;;;;;;;;;;20.60;48.70;;;;;;8366180;28;20451;-44
2022/10/06 18:07:41;;;;;;;;;;;20.60;48.70;;;;;;8366472;28;20040;-43
2022/10/06 18:11:43;;;;;;;;;;;20.60;48.70;;;;;;8365412;28;20011;-45
2022/10/06 18:15:43;;;;;;;;;;;20.60;48.70;;;;;;8365853;28;19928;-44
2022/10/06 18:19:44;;;;;;;;;;;20.50;48.70;;;;;;8366179;28;20132;-45
2022/10/06 18:23:45;;;;;;;;;;;20.60;48.70;;;;;;8364919;28;19956;-44
2022/10/06 18:27:46;;;;;;;;;;;20.60;48.70;;;;;;8365184;28;20039;-43
2022/10/06 18:31:48;;;;;;;;;;;20.60;48.80;;;;;;8365359;28;19917;-45
2022/10/06 18:35:52;;;;;;;;;;;20.60;48.70;;;;;;8364953;28;19917;-44
2022/10/06 18:39:53;;;;;;;;;;;20.60;48.70;;;;;;8365306;28;19921;-44
2022/10/06 18:43:54;;;;;;;;;;;20.60;48.80;;;;;;8365143;28;19963;-45
2022/10/06 18:52:13;;;;;;;;;;;20.60;48.80;;;;;;8371260;28;19974;-45
2022/10/06 18:56:15;;;;;;;;;;;20.60;48.80;;;;;;8364751;28;20008;-45
2022/10/06 19:00:16;;;;;;;;;;;20.60;48.80;;;;;;8364332;28;19970;-45
2022/10/06 19:04:18;;;;;;;;;;;20.60;48.80;;;;;;8364448;28;19979;-46
2022/10/06 19:08:18;;;;;;;;;;;20.60;48.70;;;;;;8363289;28;19935;-45
2022/10/06 19:12:19;;;;;;;;;;;20.60;48.80;;;;;;8363923;28;20376;-45
2022/10/06 19:16:19;;;;;;;;;;;20.60;48.90;;;;;;8364207;28;19920;-46
2022/10/06 19:20:22;;;;;;;;;;;20.60;48.90;;;;;;8363703;28;19917;-47
2022/10/06 19:24:22;;;;;;;;;;;20.60;48.90;;;;;;8362877;28;19960;-46
2022/10/06 19:28:22;;;;;;;;;;;20.60;48.90;;;;;;8363768;28;19936;-43
2022/10/06 19:32:27;;;;;;;;;;;20.50;48.90;;;;;;8364001;28;19924;-44
2022/10/06 19:36:28;;;;;;;;;;;20.50;48.90;;;;;;8363123;28;20388;-44
2022/10/06 19:40:28;;;;;;;;;;;20.60;48.90;;;;;;8363723;28;19951;-43
2022/10/06 19:44:29;;;;;;;;;;;20.60;48.90;;;;;;8363909;28;19954;-45
2022/10/06 19:48:31;;;;;;;;;;;20.60;48.90;;;;;;8362258;28;21292;-46
2022/10/06 19:52:32;;;;;;;;;;;20.60;48.80;;;;;;8363395;28;19916;-44
2022/10/06 19:56:33;;;;;;;;;;;20.60;48.90;;;;;;8363328;28;19924;-44
2022/10/06 20:00:34;;;;;;;;;;;20.60;48.90;;;;;;8363035;28;19917;-43
2022/10/06 20:04:35;;;;;;;;;;;20.60;48.90;;;;;;8363038;28;19925;-44
2022/10/06 20:08:35;;;;;;;;;;;20.60;48.90;;;;;;8363121;28;20300;-43
2022/10/06 20:12:37;;;;;;;;;;;20.50;48.90;;;;;;8362587;28;19956;-45
2022/10/06 20:16:39;;;;;;;;;;;20.60;48.90;;;;;;8363239;28;19962;-46
2022/10/06 20:20:40;;;;;;;;;;;20.60;48.90;;;;;;8362824;28;20340;-45
2022/10/06 20:24:40;;;;;;;;;;;20.60;48.80;;;;;;8362736;28;19924;-43
2022/10/06 20:28:41;;;;;;;;;;;20.60;48.80;;;;;;8362854;28;20000;-44
2022/10/06 20:32:41;;;;;;;;;;;20.60;48.80;;;;;;8362225;28;19917;-45
2022/10/06 20:36:41;;;;;;;;;;;20.50;48.80;;;;;;8366591;28;19916;-44
2022/10/06 20:40:47;;;;;;;;;;;20.60;48.80;;;;;;8369357;28;20360;-44
2022/10/06 20:44:48;;;;;;;;;;;20.60;48.80;;;;;;8368731;28;19932;-43
2022/10/06 20:48:49;;;;;;;;;;;20.60;48.80;;;;;;8369058;28;20340;-44
2022/10/06 20:52:49;;;;;;;;;;;20.60;48.80;;;;;;8369104;28;19971;-46
2022/10/06 20:56:50;;;;;;;;;;;20.60;48.90;;;;;;8368381;28;19917;-43
2022/10/06 21:00:52;;;;;;;;;;;20.60;48.90;;;;;;8368967;28;19913;-45
2022/10/06 21:04:52;;;;;;;;;;;20.60;48.90;;;;;;8368257;28;19925;-43
2022/10/06 21:08:53;;;;;;;;;;;20.50;48.80;;;;;;8367927;28;20378;-44
2022/10/06 21:12:54;;;;;;;;;;;20.50;48.90;;;;;;8368121;28;19921;-45
2022/10/06 21:16:55;;;;;;;;;;;20.50;48.90;;;;;;8368314;28;19917;-44
2022/10/06 21:21:03;;;;;;;;;;;20.50;48.90;;;;;;8367625;28;19913;-45
2022/10/06 21:25:04;;;;;;;;;;;20.50;48.90;;;;;;8367921;28;20381;-45
2022/10/06 21:29:04;;;;;;;;;;;20.50;48.80;;;;;;8367751;28;19996;-44
2022/10/06 21:33:05;;;;;;;;;;;20.50;48.80;;;;;;8367520;28;19917;-45
2022/10/06 21:37:05;;;;;;;;;;;20.50;48.90;;;;;;8367340;28;19917;-44
2022/10/06 21:45:28;;;;;;;;;;;20.50;48.80;;;;;;8366675;28;19932;-44
2022/10/06 21:49:28;;;;;;;;;;;20.50;48.80;;;;;;8366419;28;19917;-44
2022/10/06 21:53:30;;;;;;;;;;;20.50;48.80;;;;;;8366846;28;19917;-45
2022/10/06 21:57:31;;;;;;;;;;;20.50;48.80;;;;;;8366480;28;19948;-45
2022/10/06 22:01:32;;;;;;;;;;;20.50;48.80;;;;;;8355310;28;19917;-44
2022/10/06 22:05:33;;;;;;;;;;;20.50;48.80;;;;;;8366429;28;19921;-45
2022/10/06 22:09:33;;;;;;;;;;;20.50;48.80;;;;;;8364794;28;19954;-44
2022/10/06 22:13:34;;;;;;;;;;;20.50;48.90;;;;;;8366212;28;19932;-43
2022/10/06 22:17:35;;;;;;;;;;;20.50;48.90;;;;;;8366261;28;19917;-43
2022/10/06 22:21:39;;;;;;;;;;;20.50;48.90;;;;;;8365631;28;19912;-44
2022/10/06 22:25:40;;;;;;;;;;;20.50;48.90;;;;;;8366112;28;19917;-43
2022/10/06 22:29:41;;;;;;;;;;;20.50;48.90;;;;;;8365409;28;20362;-45
2022/10/06 22:33:42;;;;;;;;;;;20.50;48.90;;;;;;8365815;28;19916;-44
2022/10/06 22:37:42;;;;;;;;;;;20.40;48.80;;;;;;8365401;28;19978;-45
2022/10/06 22:41:44;;;;;;;;;;;20.50;48.90;;;;;;8365063;28;19975;-46
2022/10/06 22:45:44;;;;;;;;;;;20.40;48.80;;;;;;8365373;28;19917;-44
2022/10/06 22:49:45;;;;;;;;;;;20.40;48.80;;;;;;8365044;28;20368;-45
2022/10/06 22:53:45;;;;;;;;;;;20.40;48.90;;;;;;8364533;28;19921;-45
2022/10/06 22:57:45;;;;;;;;;;;20.40;48.90;;;;;;8364668;28;20336;-46
2022/10/06 23:01:46;;;;;;;;;;;20.40;48.90;;;;;;8364696;28;19921;-44
2022/10/06 23:05:57;;;;;;;;;;;20.40;48.90;;;;;;8364082;28;19917;-45
2022/10/06 23:09:57;;;;;;;;;;;20.40;48.90;;;;;;8364822;28;19963;-44
2022/10/06 23:13:59;;;;;;;;;;;20.40;48.90;;;;;;8364439;28;19916;-43
2022/10/06 23:17:59;;;;;;;;;;;20.40;48.90;;;;;;8363895;28;19940;-44
2022/10/06 23:22:00;;;;;;;;;;;20.40;48.90;;;;;;8364447;28;19928;-45
2022/10/06 23:26:04;;;;;;;;;;;20.40;48.90;;;;;;8364064;28;19948;-45
2022/10/06 23:30:05;;;;;;;;;;;20.40;48.90;;;;;;8363595;28;19924;-45
2022/10/06 23:34:06;;;;;;;;;;;20.40;48.90;;;;;;8363789;28;19995;-43
2022/10/06 23:38:06;;;;;;;;;;;20.40;48.90;;;;;;8363740;28;19917;-44
2022/10/06 23:42:08;;;;;;;;;;;20.40;48.90;;;;;;8363293;28;19925;-43
2022/10/06 23:46:09;;;;;;;;;;;20.40;48.90;;;;;;8363695;28;19921;-44
2022/10/06 23:50:10;;;;;;;;;;;20.40;48.90;;;;;;8363470;28;19971;-44
2022/10/06 23:54:11;;;;;;;;;;;20.40;49.50;;;;;;8363038;28;20007;-44
2022/10/06 23:58:13;;;;;;;;;;;20.30;48.90;;;;;;8363642;28;19912;-44
